METAR AND TAF INFORMATION
METAR FOR SBKG
ADDS - METARS form results

(0318 UTC 11 August 2020)
Data provider http://aviationweather.gov/metar/data/
 
Forecast for: SBKG (CAMPINA GRANDE , BR)
Text: TAF SBKG 102100Z 1100/1112 16010KT 9999 SCT022 TN21/1106Z TX24/1112Z RMK PDP
Forecast period: 0000 to 1200 UTC 11 August 2020
Forecast type: FROM: standard forecast or significant change
Winds: from the SSE (160 degrees) at 12 MPH (10 knots; 5.1 m/s)
Visibility: 6 or more miles (10+ km)
Ceiling: at least 12,000 feet AGL
Clouds: scattered clouds at 2200 feet AGL
Weather: no significant weather forecast for this period

 AIRPORT MAP

 RUNWAY INFORMATION
Runway 15 Runway length 5249 ft Runway width 138 ft
Runway elevation 0 ft Runway displaced threshold 0 ft Runway heading 0
Runway 33 Runway length 5249 ft Runway width 138 ft
Runway elevation 0 ft Runway displaced threshold 0 ft Runway heading 0

 AIRPORT FREQUENCIES
Type AFIS Name CAMPINA GR Frequency 125.9 MHZ

 AIRPORT NEAR NAVIGATION AIDS
Type NDB Name Campina Grande Frequency 230 KHZ



Powered by Virtual Airlines Manager [v2.6.2]